createdAt,value
2018-11-03T00:00:59.762Z,67.14
2018-11-03T00:02:00.022Z,67.04
2018-11-03T00:03:00.413Z,67.17
2018-11-03T00:04:00.830Z,67.11
2018-11-03T00:05:01.224Z,67.04
2018-11-03T00:06:01.539Z,66.83
2018-11-03T00:07:02.284Z,67.05
2018-11-03T00:08:02.851Z,67.07
2018-11-03T00:09:02.790Z,66.98
2018-11-03T00:10:03.911Z,67.02
2018-11-03T00:11:04.408Z,67.08
2018-11-03T00:12:04.933Z,67.00
2018-11-03T00:13:04.728Z,67.16
2018-11-03T00:14:05.348Z,67.14
2018-11-03T00:15:05.569Z,67.12
2018-11-03T00:16:05.752Z,67.13
2018-11-03T00:17:06.090Z,67.07
2018-11-03T00:18:06.301Z,67.06
2018-11-03T00:19:06.403Z,67.10
2018-11-03T00:20:06.318Z,67.16
2018-11-03T00:21:06.918Z,67.26
2018-11-03T00:22:06.794Z,67.57
2018-11-03T00:23:07.303Z,67.58
2018-11-03T00:24:07.494Z,67.53
2018-11-03T00:25:07.618Z,67.52
2018-11-03T00:26:07.741Z,67.48
2018-11-03T00:27:08.489Z,67.46
2018-11-03T00:28:08.488Z,67.43
2018-11-03T00:29:09.143Z,67.44
2018-11-03T00:30:09.290Z,67.36
2018-11-03T00:31:09.187Z,67.53
2018-11-03T00:32:09.702Z,67.57
2018-11-03T00:33:09.704Z,67.55
2018-11-03T00:34:10.018Z,67.58
2018-11-03T00:35:10.437Z,67.65
2018-11-03T00:36:10.646Z,67.49
2018-11-03T00:37:11.096Z,67.50
2018-11-03T00:38:11.230Z,67.48
2018-11-03T00:39:11.586Z,67.54
2018-11-03T00:40:12.174Z,67.55
2018-11-03T00:41:12.707Z,67.60
2018-11-03T00:42:13.089Z,67.65
2018-11-03T00:44:13.252Z,67.65
2018-11-03T00:45:13.755Z,67.97
2018-11-03T00:46:13.164Z,67.95
2018-11-03T00:47:13.588Z,67.87
2018-11-03T00:48:13.997Z,67.96
2018-11-03T00:49:14.313Z,68.03
2018-11-03T00:50:15.426Z,68.04
2018-11-03T00:51:14.845Z,68.11
2018-11-03T00:52:15.339Z,68.08
2018-11-03T00:53:15.806Z,68.15
2018-11-03T00:54:16.465Z,68.20
2018-11-03T00:55:17.037Z,68.25
2018-11-03T00:56:16.378Z,68.30
2018-11-03T00:57:16.747Z,68.27
2018-11-03T00:58:17.212Z,68.25
2018-11-03T00:59:17.535Z,68.32
2018-11-03T01:00:17.904Z,68.27
2018-11-03T01:01:19.292Z,68.42
2018-11-03T01:02:19.488Z,68.45
2018-11-03T01:03:19.701Z,68.44
2018-11-03T01:04:20.116Z,68.44
2018-11-03T01:05:20.325Z,68.36
2018-11-03T01:06:20.756Z,68.28
2018-11-03T01:07:21.054Z,68.18
2018-11-03T01:08:21.413Z,68.20
2018-11-03T01:09:21.500Z,68.28
2018-11-03T01:10:21.700Z,68.33
2018-11-03T01:11:22.008Z,68.46
2018-11-03T01:12:22.091Z,68.59
2018-11-03T01:13:22.119Z,68.62
2018-11-03T01:14:22.528Z,68.66
2018-11-03T01:15:22.416Z,68.63
2018-11-03T01:16:22.915Z,68.94
2018-11-03T01:17:23.017Z,69.07
2018-11-03T01:18:23.591Z,69.22
2018-11-03T01:19:23.286Z,69.15
2018-11-03T01:20:23.606Z,69.10
2018-11-03T01:21:23.804Z,69.14
2018-11-03T01:22:23.952Z,69.12
2018-11-03T01:23:24.266Z,69.05
2018-11-03T01:24:24.489Z,69.13
2018-11-03T01:25:24.766Z,69.10
2018-11-03T01:26:24.625Z,69.13
2018-11-03T01:27:25.007Z,69.03
2018-11-03T01:28:25.517Z,68.96
2018-11-03T01:29:25.925Z,68.96
2018-11-03T01:30:26.247Z,68.96
2018-11-03T01:31:26.569Z,68.97
2018-11-03T01:32:27.188Z,69.04
2018-11-03T01:33:26.990Z,69.01
2018-11-03T01:34:27.397Z,69.09
2018-11-03T01:35:27.810Z,69.15
2018-11-03T01:36:28.238Z,69.17
2018-11-03T01:37:28.831Z,69.14
2018-11-03T01:38:28.864Z,69.08
2018-11-03T01:39:28.771Z,69.07
2018-11-03T01:40:29.236Z,68.91
2018-11-03T01:41:29.687Z,68.96
2018-11-03T01:42:30.195Z,68.88
2018-11-03T01:43:30.479Z,68.88
2018-11-03T01:44:30.781Z,68.91
2018-11-03T01:45:31.283Z,69.04
2018-11-03T01:46:31.304Z,69.10
2018-11-03T01:47:31.691Z,69.18
2018-11-03T01:48:32.029Z,69.08
2018-11-03T01:49:32.669Z,69.25
2018-11-03T01:50:32.661Z,69.24
2018-11-03T01:51:33.140Z,69.20
2018-11-03T01:52:34.255Z,69.15
2018-11-03T01:53:34.363Z,69.28
2018-11-03T01:54:34.372Z,69.45
2018-11-03T01:55:34.587Z,69.40
2018-11-03T01:56:34.816Z,69.43
2018-11-03T01:57:35.211Z,69.40
2018-11-03T01:58:35.191Z,69.49
2018-11-03T01:59:35.737Z,69.65
2018-11-03T02:00:35.330Z,69.53
2018-11-03T02:01:35.655Z,69.63
2018-11-03T02:02:36.166Z,69.53
2018-11-03T02:03:36.368Z,69.67
2018-11-03T02:04:36.794Z,69.50
2018-11-03T02:05:36.898Z,69.75
2018-11-03T02:06:36.930Z,69.75
2018-11-03T02:07:36.908Z,69.72
2018-11-03T02:08:36.901Z,69.67
2018-11-03T02:09:37.269Z,69.63
2018-11-03T02:10:37.585Z,69.53
2018-11-03T02:12:37.788Z,69.52
2018-11-03T02:13:38.074Z,69.47
2018-11-03T02:14:38.403Z,69.56
2018-11-03T02:15:38.759Z,69.55
2018-11-03T02:16:38.925Z,69.70
2018-11-03T02:17:39.077Z,69.74
2018-11-03T02:18:39.302Z,69.81
2018-11-03T02:19:39.115Z,69.91
2018-11-03T02:20:39.489Z,70.02
2018-11-03T02:21:39.810Z,70.04
2018-11-03T02:22:40.366Z,70.12
2018-11-03T02:23:40.246Z,70.22
2018-11-03T02:24:40.650Z,70.35
2018-11-03T02:25:40.975Z,70.44
2018-11-03T02:26:41.559Z,70.56
2018-11-03T02:27:41.382Z,70.68
2018-11-03T02:28:41.814Z,70.69
2018-11-03T02:29:41.835Z,70.82
2018-11-03T02:30:42.217Z,70.78
2018-11-03T02:31:42.594Z,70.84
2018-11-03T02:32:42.966Z,70.94
2018-11-03T02:33:43.372Z,71.08
2018-11-03T02:34:43.827Z,71.23
2018-11-03T02:35:44.380Z,71.36
2018-11-03T02:36:44.320Z,71.61
2018-11-03T02:37:44.760Z,71.83
2018-11-03T02:38:45.131Z,71.87
2018-11-03T02:39:45.553Z,72.09
2018-11-03T02:40:45.992Z,72.20
2018-11-03T02:41:46.382Z,72.28
2018-11-03T02:42:46.703Z,72.49
2018-11-03T02:43:47.095Z,72.57
2018-11-03T02:44:47.424Z,72.65
2018-11-03T02:45:47.731Z,72.83
2018-11-03T02:46:48.538Z,73.19
2018-11-03T02:47:49.061Z,73.37
2018-11-03T02:48:49.159Z,73.59
2018-11-03T02:49:49.373Z,73.59
2018-11-03T02:50:49.591Z,73.70
2018-11-03T02:51:49.589Z,73.86
2018-11-03T02:52:50.529Z,73.93
2018-11-03T02:53:50.832Z,74.11
2018-11-03T02:54:51.030Z,74.19
2018-11-03T02:55:51.259Z,74.33
2018-11-03T02:56:51.466Z,74.53
2018-11-03T02:57:51.791Z,74.73
2018-11-03T02:58:51.889Z,74.85
2018-11-03T02:59:52.094Z,75.05
2018-11-03T03:00:52.098Z,75.37
2018-11-03T03:01:51.998Z,75.50
2018-11-03T03:02:52.372Z,75.48
2018-11-03T03:03:52.642Z,75.53
2018-11-03T03:04:52.839Z,75.85
2018-11-03T03:05:53.052Z,75.89
2018-11-03T03:06:53.270Z,76.09
2018-11-03T03:07:53.583Z,76.20
2018-11-03T03:08:53.805Z,76.28
2018-11-03T03:09:53.946Z,76.32
2018-11-03T03:10:54.045Z,76.39
2018-11-03T03:11:54.156Z,76.49
2018-11-03T03:12:54.216Z,76.75
2018-11-03T03:13:54.143Z,76.63
2018-11-03T03:14:54.251Z,76.96
2018-11-03T03:15:54.595Z,77.03
2018-11-03T03:16:55.285Z,77.08
2018-11-03T03:17:55.120Z,77.31
2018-11-03T03:18:55.435Z,77.40
2018-11-03T03:19:55.905Z,77.63
2018-11-03T03:20:56.273Z,77.50
2018-11-03T03:21:56.706Z,77.60
2018-11-03T03:22:57.341Z,77.64
2018-11-03T03:23:57.295Z,77.73
2018-11-03T03:24:57.797Z,77.88
2018-11-03T03:25:58.127Z,77.97
2018-11-03T03:26:58.458Z,78.07
2018-11-03T03:27:58.911Z,78.22
2018-11-03T03:28:59.352Z,78.15
2018-11-03T03:29:59.704Z,78.25
2018-11-03T03:31:00.129Z,78.17
2018-11-03T03:32:00.525Z,78.40
2018-11-03T03:33:00.857Z,78.41
2018-11-03T03:34:01.284Z,78.48
2018-11-03T03:35:01.696Z,78.36
2018-11-03T03:36:02.161Z,78.55
2018-11-03T03:37:02.394Z,78.71
2018-11-03T03:38:02.826Z,78.84
2018-11-03T03:39:03.934Z,78.87
2018-11-03T03:40:04.563Z,78.96
2018-11-03T03:41:04.550Z,78.98
2018-11-03T03:42:04.972Z,79.19
2018-11-03T03:43:04.967Z,79.45
2018-11-03T03:44:05.909Z,79.75
2018-11-03T03:45:06.451Z,79.85
2018-11-03T03:46:06.322Z,80.05
2018-11-03T03:47:06.636Z,80.23
2018-11-03T03:48:06.752Z,80.35
2018-11-03T03:49:07.072Z,80.66
2018-11-03T03:50:07.353Z,80.67
2018-11-03T03:51:07.379Z,80.45
2018-11-03T03:52:07.253Z,80.53
2018-11-03T03:53:07.498Z,80.38
2018-11-03T03:54:07.697Z,80.70
2018-11-03T03:55:07.891Z,80.78
2018-11-03T03:56:08.028Z,80.88
2018-11-03T03:57:08.239Z,80.77
2018-11-03T03:58:08.043Z,80.99
2018-11-03T03:59:09.097Z,81.10
2018-11-03T04:00:09.786Z,81.19
2018-11-03T04:01:09.076Z,81.47
2018-11-03T04:02:09.091Z,81.71
2018-11-03T04:03:08.865Z,81.80
2018-11-03T04:04:09.304Z,82.13
2018-11-03T04:05:09.830Z,82.03
2018-11-03T04:06:09.665Z,81.86
2018-11-03T04:07:10.084Z,82.04
2018-11-03T04:08:10.500Z,82.10
2018-11-03T04:09:10.942Z,82.24
2018-11-03T04:10:11.607Z,82.18
2018-11-03T04:11:11.460Z,82.30
2018-11-03T04:12:11.856Z,82.23
2018-11-03T04:13:13.298Z,82.17
2018-11-03T04:14:12.649Z,82.08
2018-11-03T04:15:13.277Z,81.93
2018-11-03T04:16:13.249Z,82.25
2018-11-03T04:17:13.658Z,82.18
2018-11-03T04:18:14.064Z,82.59
2018-11-03T04:19:14.501Z,82.72
2018-11-03T04:20:14.498Z,82.54
2018-11-03T04:21:15.005Z,82.51
2018-11-03T04:22:15.405Z,82.56
2018-11-03T04:23:15.976Z,82.60
2018-11-03T04:24:15.795Z,82.57
2018-11-03T04:25:16.589Z,82.69
2018-11-03T04:26:16.445Z,82.73
2018-11-03T04:27:16.868Z,82.78
2018-11-03T04:28:17.290Z,82.97
2018-11-03T04:29:17.712Z,83.01
2018-11-03T04:30:18.933Z,82.87
2018-11-03T04:31:19.007Z,82.85
2018-11-03T04:32:19.381Z,82.80
2018-11-03T04:33:19.539Z,82.80
2018-11-03T04:34:19.962Z,82.85
2018-11-03T04:35:20.268Z,82.93
2018-11-03T04:36:20.784Z,83.24
2018-11-03T04:37:20.485Z,83.42
2018-11-03T04:38:21.000Z,83.51
2018-11-03T04:39:21.229Z,83.69
2018-11-03T04:40:21.539Z,83.52
2018-11-03T04:41:21.742Z,83.81
2018-11-03T04:42:21.931Z,84.06
2018-11-03T04:43:21.951Z,83.95
2018-11-03T04:44:21.999Z,83.92
2018-11-03T04:45:21.931Z,83.98
2018-11-03T04:46:22.280Z,84.17
2018-11-03T04:47:22.591Z,84.31
2018-11-03T04:48:22.700Z,84.12
2018-11-03T04:49:23.061Z,84.20
2018-11-03T04:50:22.887Z,84.04
2018-11-03T04:51:23.746Z,84.11
2018-11-03T04:52:24.185Z,84.12
2018-11-03T04:53:24.264Z,84.31
2018-11-03T04:54:24.268Z,84.37
2018-11-03T04:55:24.764Z,84.27
2018-11-03T04:56:24.610Z,84.19
2018-11-03T04:57:24.917Z,84.34
2018-11-03T04:58:25.052Z,84.30
2018-11-03T04:59:25.467Z,84.38
2018-11-03T05:00:25.899Z,84.57
2018-11-03T05:01:26.481Z,84.54
2018-11-03T05:02:26.323Z,84.50
2018-11-03T05:03:26.834Z,84.60
2018-11-03T05:04:26.638Z,84.61
2018-11-03T05:05:27.073Z,84.77
2018-11-03T05:06:27.508Z,84.71
2018-11-03T05:07:27.802Z,84.77
2018-11-03T05:08:28.199Z,84.79
2018-11-03T05:09:28.516Z,84.64
2018-11-03T05:10:34.196Z,84.92
2018-11-03T05:11:28.897Z,84.92
2018-11-03T05:12:29.281Z,85.02
2018-11-03T05:13:29.662Z,85.25
2018-11-03T05:14:30.036Z,85.23
2018-11-03T05:15:30.374Z,85.57
2018-11-03T05:16:30.405Z,85.43
2018-11-03T05:17:31.018Z,85.45
2018-11-03T05:18:31.039Z,85.61
2018-11-03T05:19:31.399Z,86.05
2018-11-03T05:20:31.747Z,86.12
2018-11-03T05:21:32.133Z,86.10
2018-11-03T05:22:32.505Z,86.28
2018-11-03T05:23:32.777Z,86.22
2018-11-03T05:24:32.949Z,86.41
2018-11-03T05:25:34.283Z,86.33
2018-11-03T05:26:34.731Z,86.89
2018-11-03T05:27:34.936Z,86.63
2018-11-03T05:28:35.019Z,86.46
2018-11-03T05:29:35.128Z,86.57
2018-11-03T05:30:35.648Z,86.30
2018-11-03T05:31:36.070Z,86.37
2018-11-03T05:32:36.177Z,86.25
2018-11-03T05:33:36.180Z,86.21
2018-11-03T05:34:36.108Z,86.38
2018-11-03T05:35:36.501Z,86.25
2018-11-03T05:36:36.721Z,86.55
2018-11-03T05:37:36.912Z,86.75
2018-11-03T05:38:37.225Z,86.86
2018-11-03T05:39:37.319Z,86.81
2018-11-03T05:40:37.266Z,86.82
2018-11-03T05:41:37.037Z,86.83
2018-11-03T05:42:37.292Z,86.92
2018-11-03T05:43:37.461Z,86.92
2018-11-03T05:44:37.652Z,86.77
2018-11-03T05:45:37.847Z,86.66
2018-11-03T05:46:38.110Z,86.82
2018-11-03T05:47:38.049Z,86.94
2018-11-03T05:48:38.221Z,86.93
2018-11-03T05:49:38.423Z,87.15
2018-11-03T05:50:38.631Z,87.25
2018-11-03T05:51:38.805Z,87.16
2018-11-03T05:52:38.986Z,87.08
2018-11-03T05:53:39.238Z,87.20
2018-11-03T05:54:39.162Z,87.28
2018-11-03T05:55:39.538Z,87.38
2018-11-03T05:56:39.835Z,87.61
2018-11-03T05:57:40.131Z,87.60
2018-11-03T05:58:40.465Z,87.64
2018-11-03T05:59:40.761Z,87.65
2018-11-03T06:00:41.034Z,87.81
2018-11-03T06:01:41.359Z,87.80
2018-11-03T06:02:41.705Z,87.96
2018-11-03T06:03:42.098Z,87.65
2018-11-03T06:04:42.454Z,88.03
2018-11-03T06:05:42.812Z,88.21
2018-11-03T06:06:43.129Z,88.12
2018-11-03T06:07:44.508Z,88.07
2018-11-03T06:08:43.847Z,87.93
2018-11-03T06:09:44.390Z,88.26
2018-11-03T06:10:44.465Z,88.06
2018-11-03T06:11:44.881Z,88.08
2018-11-03T06:12:45.348Z,88.07
2018-11-03T06:13:45.627Z,87.96
2018-11-03T06:14:46.076Z,87.85
2018-11-03T06:15:46.494Z,87.72
2018-11-03T06:16:46.826Z,87.89
2018-11-03T06:17:47.138Z,88.11
2018-11-03T06:18:47.461Z,88.13
2018-11-03T06:19:47.946Z,88.16
2018-11-03T06:20:49.187Z,88.19
2018-11-03T06:21:49.313Z,88.25
2018-11-03T06:22:49.826Z,88.19
2018-11-03T06:23:50.232Z,88.34
2018-11-03T06:24:50.544Z,88.35
2018-11-03T06:25:50.550Z,88.40
2018-11-03T06:26:51.102Z,88.48
2018-11-03T06:27:50.936Z,88.50
2018-11-03T06:28:51.182Z,88.34
2018-11-03T06:29:51.305Z,88.40
2018-11-03T06:30:51.503Z,88.54
2018-11-03T06:31:51.619Z,88.23
2018-11-03T06:32:51.729Z,88.43
2018-11-03T06:33:51.817Z,88.33
2018-11-03T06:34:51.637Z,88.28
2018-11-03T06:35:52.089Z,88.44
2018-11-03T06:36:51.985Z,88.32
2018-11-03T06:37:52.743Z,88.42
2018-11-03T06:38:52.940Z,88.39
2018-11-03T06:39:53.199Z,88.17
2018-11-03T06:40:53.296Z,88.30
2018-11-03T06:41:53.397Z,88.30
2018-11-03T06:42:53.646Z,88.29
2018-11-03T06:43:53.879Z,88.32
2018-11-03T06:44:54.303Z,88.21
2018-11-03T06:45:54.237Z,88.11
2018-11-03T06:46:54.615Z,88.11
2018-11-03T06:47:55.226Z,88.03
2018-11-03T06:48:55.140Z,87.98
2018-11-03T06:49:55.286Z,88.07
2018-11-03T06:50:55.667Z,88.01
2018-11-03T06:51:55.979Z,88.12
2018-11-03T06:52:56.298Z,88.26
2018-11-03T06:53:56.716Z,88.31
2018-11-03T06:54:57.107Z,88.25
2018-11-03T06:55:57.574Z,88.20
2018-11-03T06:56:57.869Z,88.23
2018-11-03T06:57:58.430Z,88.18
2018-11-03T06:58:58.241Z,88.18
2018-11-03T06:59:58.572Z,88.10
2018-11-03T07:00:58.891Z,88.17
2018-11-03T07:01:59.703Z,87.99
2018-11-03T07:02:59.792Z,87.90
2018-11-03T07:03:59.805Z,87.74
2018-11-03T07:04:59.627Z,87.69
2018-11-03T07:05:59.945Z,87.63
2018-11-03T07:07:00.261Z,87.50
2018-11-03T07:08:00.842Z,87.30
2018-11-03T07:09:00.762Z,87.39
2018-11-03T07:10:01.001Z,87.29
2018-11-03T07:11:01.433Z,87.24
2018-11-03T07:12:01.921Z,87.11
2018-11-03T07:13:02.595Z,86.93
2018-11-03T07:14:02.635Z,87.05
2018-11-03T07:15:02.715Z,86.82
2018-11-03T07:16:03.333Z,86.74
2018-11-03T07:17:03.910Z,86.60
2018-11-03T07:18:04.312Z,86.44
2018-11-03T07:19:04.404Z,86.33
2018-11-03T07:20:04.828Z,85.94
2018-11-03T07:21:04.733Z,85.77
2018-11-03T07:22:04.760Z,85.48
2018-11-03T07:23:05.063Z,85.26
2018-11-03T07:24:05.469Z,85.09
2018-11-03T07:25:05.577Z,85.09
2018-11-03T07:26:05.586Z,84.91
2018-11-03T07:27:05.885Z,84.84
2018-11-03T07:28:06.630Z,84.74
2018-11-03T07:29:06.628Z,84.58
2018-11-03T07:30:07.118Z,84.48
2018-11-03T07:31:07.400Z,84.05
2018-11-03T07:32:07.502Z,83.93
2018-11-03T07:33:07.620Z,83.62
2018-11-03T07:34:07.491Z,83.19
2018-11-03T07:35:08.085Z,83.20
2018-11-03T07:36:08.107Z,82.70
2018-11-03T07:37:07.900Z,82.96
2018-11-03T07:38:08.297Z,82.67
2018-11-03T07:39:09.172Z,82.34
2018-11-03T07:40:09.218Z,81.77
2018-11-03T07:41:09.734Z,81.95
2018-11-03T07:42:09.308Z,81.79
2018-11-03T07:43:09.628Z,81.24
2018-11-03T07:44:10.203Z,81.42
2018-11-03T07:45:10.146Z,81.14
2018-11-03T07:46:10.499Z,80.23
2018-11-03T07:47:10.908Z,80.78
2018-11-03T07:48:11.366Z,80.50
2018-11-03T07:49:11.775Z,79.73
2018-11-03T07:50:11.910Z,79.46
2018-11-03T07:51:13.450Z,79.63
2018-11-03T07:52:12.892Z,79.34
2018-11-03T07:53:13.288Z,79.50
2018-11-03T07:54:13.844Z,79.24
2018-11-03T07:55:14.164Z,78.94
2018-11-03T07:56:14.006Z,78.02
2018-11-03T07:57:14.289Z,77.98
2018-11-03T07:58:14.636Z,77.62
2018-11-03T07:59:15.059Z,77.70
2018-11-03T08:00:16.209Z,77.71
2018-11-03T08:01:15.563Z,77.69
2018-11-03T08:02:16.252Z,77.27
2018-11-03T08:03:16.254Z,77.24
2018-11-03T08:04:16.159Z,77.22
2018-11-03T08:05:16.452Z,76.96
2018-11-03T08:06:16.817Z,76.27
2018-11-03T08:07:17.148Z,76.52
2018-11-03T08:08:17.466Z,76.59
2018-11-03T08:09:18.045Z,76.39
2018-11-03T08:10:19.598Z,76.11
2018-11-03T08:11:19.189Z,75.88
2018-11-03T08:12:19.091Z,75.62
2018-11-03T08:13:19.715Z,75.72
2018-11-03T08:14:20.056Z,75.27
2018-11-03T08:15:20.272Z,75.25
2018-11-03T08:16:20.548Z,74.89
2018-11-03T08:17:20.659Z,74.28
2018-11-03T08:18:21.194Z,74.58
2018-11-03T08:19:20.993Z,74.45
2018-11-03T08:20:21.193Z,74.42
2018-11-03T08:21:21.611Z,74.17
2018-11-03T08:22:21.718Z,73.83
2018-11-03T08:23:21.621Z,73.47
2018-11-03T08:24:22.047Z,73.39
2018-11-03T08:25:22.304Z,72.47
2018-11-03T08:26:22.514Z,72.10
2018-11-03T08:27:22.713Z,71.12
2018-11-03T08:28:22.964Z,69.83
2018-11-03T08:29:23.104Z,69.49
2018-11-03T08:30:23.303Z,68.01
2018-11-03T08:31:23.739Z,67.09
2018-11-03T08:32:23.872Z,65.94
2018-11-03T08:33:24.014Z,64.68
2018-11-03T08:34:24.077Z,63.77
2018-11-03T08:35:24.309Z,62.88
2018-11-03T08:36:24.487Z,63.42
2018-11-03T08:37:24.820Z,63.34
2018-11-03T08:38:24.615Z,62.76
2018-11-03T08:39:25.230Z,63.80
2018-11-03T08:40:25.022Z,64.89
2018-11-03T08:41:25.364Z,66.13
2018-11-03T08:42:25.662Z,67.68
2018-11-03T08:43:26.158Z,68.61
2018-11-03T08:44:26.450Z,68.87
2018-11-03T08:45:26.861Z,69.05
2018-11-03T08:46:27.153Z,69.48
2018-11-03T08:47:27.546Z,69.57
2018-11-03T08:48:28.004Z,69.72
2018-11-03T08:49:28.389Z,69.48
2018-11-03T08:50:28.406Z,69.56
2018-11-03T08:51:28.702Z,69.52
2018-11-03T08:52:28.990Z,69.26
2018-11-03T08:53:29.425Z,69.09
2018-11-03T08:54:29.627Z,69.25
2018-11-03T08:55:29.950Z,69.24
2018-11-03T08:56:30.237Z,69.05
2018-11-03T08:57:30.589Z,68.79
2018-11-03T08:58:31.069Z,68.76
2018-11-03T08:59:31.429Z,68.39
2018-11-03T09:00:31.869Z,68.23
2018-11-03T09:01:32.252Z,68.41
2018-11-03T09:02:32.662Z,68.73
2018-11-03T09:03:33.763Z,68.91
2018-11-03T09:04:33.676Z,69.20
2018-11-03T09:05:34.291Z,69.35
2018-11-03T09:06:34.607Z,69.30
2018-11-03T09:07:34.815Z,69.51
2018-11-03T09:08:35.125Z,69.62
2018-11-03T09:09:35.344Z,69.77
2018-11-03T09:10:36.033Z,69.82
2018-11-03T09:11:35.904Z,69.80
2018-11-03T09:12:36.114Z,69.91
2018-11-03T09:13:36.486Z,70.07
2018-11-03T09:14:36.689Z,70.00
2018-11-03T09:15:36.528Z,70.16
2018-11-03T09:16:37.006Z,70.05
2018-11-03T09:17:37.308Z,70.14
2018-11-03T09:18:37.484Z,70.17
2018-11-03T09:19:37.719Z,70.18
2018-11-03T09:20:38.025Z,70.31
2018-11-03T09:22:38.269Z,70.35
2018-11-03T09:23:38.546Z,70.58
2018-11-03T09:24:38.791Z,70.53
2018-11-03T09:25:39.094Z,70.55
2018-11-03T09:26:38.999Z,70.42
2018-11-03T09:27:39.779Z,70.29
2018-11-03T09:28:39.636Z,70.19
2018-11-03T09:29:39.977Z,70.42
2018-11-03T09:30:40.333Z,70.25
2018-11-03T09:31:40.822Z,70.24
2018-11-03T09:32:41.074Z,70.27
2018-11-03T09:33:41.568Z,70.29
2018-11-03T09:34:42.061Z,70.24
2018-11-03T09:35:42.467Z,70.27
2018-11-03T09:36:42.452Z,70.01
2018-11-03T09:37:42.870Z,69.75
2018-11-03T09:38:43.293Z,69.82
2018-11-03T09:39:43.874Z,69.37
2018-11-03T09:40:43.795Z,69.16
2018-11-03T09:41:44.194Z,68.65
2018-11-03T09:42:44.661Z,68.39
2018-11-03T09:43:45.004Z,68.71
2018-11-03T09:44:44.991Z,68.96
2018-11-03T09:45:45.340Z,69.29
2018-11-03T09:46:45.644Z,69.75
2018-11-03T09:47:46.258Z,69.93
2018-11-03T09:48:46.314Z,70.04
2018-11-03T09:49:46.178Z,70.17
2018-11-03T09:50:46.612Z,70.08
2018-11-03T09:52:47.012Z,69.97
2018-11-03T09:53:46.899Z,69.88
2018-11-03T09:55:47.291Z,69.86
2018-11-03T09:56:47.787Z,69.91
2018-11-03T09:57:48.763Z,69.83
2018-11-03T09:58:48.925Z,69.85
2018-11-03T09:59:49.185Z,69.76
2018-11-03T10:00:49.716Z,69.78
2018-11-03T10:01:50.220Z,69.73
2018-11-03T10:02:50.436Z,69.62
2018-11-03T10:03:50.642Z,69.46
2018-11-03T10:04:50.935Z,69.34
2018-11-03T10:05:51.266Z,69.11
2018-11-03T10:06:51.289Z,68.32
2018-11-03T10:08:51.220Z,67.89
2018-11-03T10:09:51.908Z,68.26
2018-11-03T10:10:52.149Z,67.91
2018-11-03T10:11:52.126Z,67.07
2018-11-03T10:12:52.334Z,66.71
2018-11-03T10:13:52.516Z,66.62
2018-11-03T10:14:52.612Z,67.00
2018-11-03T10:15:52.766Z,67.14
2018-11-03T10:16:52.974Z,67.19
2018-11-03T10:17:53.115Z,67.50
2018-11-03T10:18:53.219Z,67.50
2018-11-03T10:19:53.592Z,67.34
2018-11-03T10:20:53.856Z,67.19
2018-11-03T10:21:54.034Z,67.10
2018-11-03T10:22:54.088Z,67.16
2018-11-03T10:23:54.123Z,67.08
2018-11-03T10:24:54.260Z,67.03
2018-11-03T10:25:54.247Z,67.09
2018-11-03T10:26:54.624Z,66.84
2018-11-03T10:27:55.156Z,66.79
2018-11-03T10:28:55.035Z,67.01
2018-11-03T10:29:55.653Z,66.72
2018-11-03T10:30:55.710Z,66.75
2018-11-03T10:31:55.925Z,66.57
2018-11-03T10:32:56.424Z,66.68
2018-11-03T10:33:56.838Z,66.41
2018-11-03T10:34:57.231Z,66.43
2018-11-03T10:35:57.716Z,66.08
2018-11-03T10:36:58.033Z,65.66
2018-11-03T10:37:58.382Z,65.29
2018-11-03T10:38:58.709Z,64.93
2018-11-03T10:39:59.104Z,65.12
2018-11-03T10:40:59.516Z,65.34
2018-11-03T10:41:59.944Z,65.45
2018-11-03T10:43:00.297Z,65.72
2018-11-03T10:44:00.666Z,65.53
2018-11-03T10:45:01.085Z,65.67
2018-11-03T10:46:01.731Z,65.64
2018-11-03T10:47:01.888Z,65.50
2018-11-03T10:48:02.298Z,65.14
2018-11-03T10:49:02.450Z,64.84
2018-11-03T10:50:03.375Z,64.70
2018-11-03T10:51:04.063Z,65.02
2018-11-03T10:52:04.381Z,65.20
2018-11-03T10:53:04.480Z,65.10
2018-11-03T10:54:04.592Z,64.76
2018-11-03T10:55:05.313Z,64.80
2018-11-03T10:56:05.369Z,64.57
2018-11-03T10:57:05.442Z,64.54
2018-11-03T10:58:05.531Z,64.29
2018-11-03T10:59:06.112Z,64.18
2018-11-03T11:00:06.062Z,63.87
2018-11-03T11:01:06.169Z,64.08
2018-11-03T11:02:06.397Z,64.27
2018-11-03T11:03:07.000Z,64.36
2018-11-03T11:04:06.237Z,64.40
2018-11-03T11:05:06.919Z,64.38
2018-11-03T11:06:06.935Z,64.34
2018-11-03T11:07:07.123Z,64.30
2018-11-03T11:08:07.295Z,64.43
2018-11-03T11:09:07.285Z,64.37
2018-11-03T11:10:07.581Z,64.35
2018-11-03T11:11:07.817Z,64.31
2018-11-03T11:12:08.116Z,64.18
2018-11-03T11:13:08.129Z,64.09
2018-11-03T11:14:08.520Z,64.13
2018-11-03T11:15:09.275Z,64.39
2018-11-03T11:16:09.188Z,64.09
2018-11-03T11:17:09.264Z,64.12
2018-11-03T11:18:09.463Z,64.08
2018-11-03T11:19:09.406Z,64.08
2018-11-03T11:20:09.832Z,64.07
2018-11-03T11:21:10.178Z,63.80
2018-11-03T11:22:10.541Z,63.66
2018-11-03T11:23:10.949Z,63.79
2018-11-03T11:24:11.481Z,63.80
2018-11-03T11:25:11.785Z,63.79
2018-11-03T11:26:12.143Z,63.80
2018-11-03T11:27:12.536Z,63.78
2018-11-03T11:28:12.972Z,63.78
2018-11-03T11:29:13.391Z,63.73
2018-11-03T11:30:13.275Z,63.66
2018-11-03T11:31:13.675Z,63.58
2018-11-03T11:32:13.986Z,63.46
2018-11-03T11:33:14.300Z,63.43
2018-11-03T11:34:14.540Z,63.44
2018-11-03T11:35:15.497Z,63.54
2018-11-03T11:36:15.484Z,63.45
2018-11-03T11:37:15.858Z,63.42
2018-11-03T11:38:16.283Z,63.25
2018-11-03T11:39:16.727Z,63.13
2018-11-03T11:40:17.173Z,63.06
2018-11-03T11:41:17.123Z,62.91
2018-11-03T11:42:17.608Z,62.90
2018-11-03T11:43:17.553Z,62.84
2018-11-03T11:44:17.774Z,62.81
2018-11-03T11:45:19.151Z,62.82
2018-11-03T11:46:19.361Z,62.80
2018-11-03T11:47:19.377Z,62.78
2018-11-03T11:48:19.695Z,62.60
2018-11-03T11:49:19.417Z,62.34
2018-11-03T11:50:20.311Z,62.24
2018-11-03T11:51:20.521Z,62.03
2018-11-03T11:52:20.835Z,61.91
2018-11-03T11:53:21.262Z,61.77
2018-11-03T11:54:21.566Z,61.61
2018-11-03T11:55:21.459Z,61.49
2018-11-03T11:56:21.781Z,61.41
2018-11-03T11:57:22.258Z,61.13
2018-11-03T11:58:22.447Z,60.72
2018-11-03T11:59:22.663Z,60.55
2018-11-03T12:00:22.824Z,60.54
2018-11-03T12:01:23.250Z,60.45
2018-11-03T12:02:23.506Z,60.55
2018-11-03T12:03:23.771Z,60.34
2018-11-03T12:04:24.111Z,60.04
2018-11-03T12:05:24.134Z,59.86
2018-11-03T12:06:24.238Z,59.74
2018-11-03T12:07:24.146Z,59.48
2018-11-03T12:08:24.817Z,59.18
2018-11-03T12:09:24.592Z,58.68
2018-11-03T12:10:24.792Z,58.41
2018-11-03T12:11:25.183Z,58.11
2018-11-03T12:12:25.750Z,57.68
2018-11-03T12:13:25.923Z,57.25
2018-11-03T12:14:25.826Z,56.62
2018-11-03T12:15:26.234Z,56.33
2018-11-03T12:16:26.730Z,55.99
2018-11-03T12:17:27.089Z,54.96
2018-11-03T12:18:27.399Z,54.94
2018-11-03T12:19:27.797Z,54.86
2018-11-03T12:20:28.103Z,54.18
2018-11-03T12:21:29.570Z,53.85
2018-11-03T12:22:28.890Z,53.53
2018-11-03T12:23:29.298Z,53.33
2018-11-03T12:24:29.678Z,53.18
2018-11-03T12:25:30.116Z,52.76
2018-11-03T12:26:30.411Z,52.75
2018-11-03T12:27:30.954Z,52.49
2018-11-03T12:28:30.868Z,52.06
2018-11-03T12:29:31.148Z,51.98
2018-11-03T12:30:31.563Z,51.70
2018-11-03T12:31:32.055Z,51.11
2018-11-03T12:32:32.408Z,50.88
2018-11-03T12:33:33.108Z,50.43
2018-11-03T12:34:33.406Z,50.16
2018-11-03T12:35:33.928Z,49.77
2018-11-03T12:36:34.240Z,49.82
2018-11-03T12:37:34.443Z,49.41
2018-11-03T12:38:34.670Z,49.01
2018-11-03T12:39:35.080Z,49.16
2018-11-03T12:40:35.436Z,48.46
2018-11-03T12:41:35.596Z,48.05
2018-11-03T12:42:35.612Z,48.14
2018-11-03T12:43:36.029Z,48.01
2018-11-03T12:44:35.669Z,47.73
2018-11-03T12:45:36.236Z,47.44
2018-11-03T12:46:36.650Z,46.88
2018-11-03T12:47:36.761Z,47.04
2018-11-03T12:48:36.884Z,46.84
2018-11-03T12:49:36.878Z,47.62
2018-11-03T12:50:37.067Z,47.02
2018-11-03T12:51:36.876Z,46.77
2018-11-03T12:52:37.161Z,46.58
2018-11-03T12:53:37.504Z,46.77
2018-11-03T12:54:37.729Z,46.66
2018-11-03T12:55:37.827Z,46.59
2018-11-03T12:56:37.937Z,45.91
2018-11-03T12:57:38.126Z,46.27
2018-11-03T12:58:38.134Z,46.40
2018-11-03T12:59:38.468Z,45.94
2018-11-03T13:00:38.652Z,45.75
2018-11-03T13:01:38.800Z,46.00
2018-11-03T13:02:38.908Z,45.63